createdAt,value
2024-04-12T00:02:06.587Z,12.67
2024-04-12T00:04:56.552Z,9.37
2024-04-12T00:08:09.541Z,7.83
2024-04-12T00:11:22.470Z,9.87
2024-04-12T00:14:53.484Z,10.23
2024-04-12T00:18:36.992Z,9.97
2024-04-12T00:22:02.249Z,9.13
2024-04-12T00:25:01.975Z,13.90
2024-04-12T00:28:11.429Z,10.30
2024-04-12T00:31:45.600Z,14.87
2024-04-12T00:35:10.323Z,12.67
2024-04-12T00:38:53.414Z,11.67
2024-04-12T00:41:46.490Z,12.87
2024-04-12T00:45:18.021Z,11.97
2024-04-12T00:48:27.571Z,12.47
2024-04-12T00:51:40.067Z,11.57
2024-04-12T00:54:33.661Z,12.50
2024-04-12T00:57:43.553Z,11.50
2024-04-12T01:00:49.799Z,10.63
2024-04-12T01:04:08.330Z,9.67
2024-04-12T01:07:10.302Z,10.83
2024-04-12T01:10:27.223Z,11.07
2024-04-12T01:13:27.806Z,9.83
2024-04-12T01:16:37.932Z,9.70
2024-04-12T01:19:44.173Z,7.23
2024-04-12T01:23:03.389Z,9.93
2024-04-12T01:26:33.853Z,9.47
2024-04-12T01:30:03.946Z,9.60
2024-04-12T01:32:54.630Z,8.67
2024-04-12T01:36:06.774Z,11.53
2024-04-12T01:39:17.486Z,8.07
2024-04-12T01:42:46.410Z,9.57
2024-04-12T01:45:56.703Z,8.83
2024-04-12T01:48:56.924Z,9.73
2024-04-12T01:51:49.231Z,11.23
2024-04-12T01:54:36.492Z,9.40
2024-04-12T01:57:29.794Z,9.13
2024-04-12T02:00:39.480Z,8.47
2024-04-12T02:03:32.004Z,9.20
2024-04-12T02:09:51.387Z,6.43
2024-04-12T02:12:43.802Z,8.20
2024-04-12T02:15:51.076Z,9.60
2024-04-12T02:19:12.578Z,7.77
2024-04-12T02:22:14.228Z,7.53
2024-04-12T02:25:20.383Z,9.37
2024-04-12T02:28:30.523Z,9.50
2024-04-12T02:31:56.906Z,6.50
2024-04-12T02:34:50.442Z,8.40
2024-04-12T02:37:48.825Z,10.30
2024-04-12T02:40:40.161Z,6.77
2024-04-12T02:43:30.602Z,8.77
2024-04-12T02:46:18.280Z,9.87
2024-04-12T02:49:11.260Z,10.93
2024-04-12T02:52:01.336Z,8.00
2024-04-12T02:58:06.171Z,10.77
2024-04-12T03:00:53.438Z,8.03
2024-04-12T03:04:02.670Z,11.43
2024-04-12T03:06:50.109Z,10.70
2024-04-12T03:13:03.498Z,7.77
2024-04-12T03:15:59.818Z,8.63
2024-04-12T03:19:43.511Z,9.43
2024-04-12T03:22:31.540Z,10.57
2024-04-12T03:25:18.907Z,9.43
2024-04-12T03:28:21.655Z,11.00
2024-04-12T03:31:18.368Z,7.67
2024-04-12T03:37:39.594Z,10.10
2024-04-12T03:40:27.450Z,9.73
2024-04-12T03:43:14.703Z,9.47
2024-04-12T03:46:01.998Z,9.20
2024-04-12T03:52:21.313Z,10.43
2024-04-12T03:56:05.054Z,8.63
2024-04-12T04:02:29.453Z,9.97
2024-04-12T04:05:35.765Z,10.70
2024-04-12T04:08:26.185Z,9.23
2024-04-12T04:11:17.011Z,10.07
2024-04-12T04:17:15.303Z,10.53
2024-04-12T04:20:43.395Z,10.57
2024-04-12T04:23:30.901Z,10.10
2024-04-12T04:26:31.049Z,13.40
2024-04-12T04:29:18.432Z,12.87
2024-04-12T04:32:09.157Z,13.07
2024-04-12T04:35:30.270Z,11.20
2024-04-12T04:38:20.668Z,11.67
2024-04-12T04:41:32.727Z,12.83
2024-04-12T04:44:20.732Z,12.47
2024-04-12T04:47:11.537Z,12.47
2024-04-12T04:53:45.879Z,10.87
2024-04-12T04:56:36.169Z,10.90
2024-04-12T04:59:33.728Z,11.93
2024-04-12T05:02:37.031Z,14.03
2024-04-12T05:05:52.440Z,9.90
2024-04-12T05:08:41.197Z,8.93
2024-04-12T05:11:35.092Z,11.30
2024-04-12T05:14:57.546Z,12.67
2024-04-12T05:17:45.564Z,14.50
2024-04-12T05:20:54.379Z,17.13
2024-04-12T05:23:54.126Z,9.93
2024-04-12T05:27:02.816Z,8.33
2024-04-12T05:29:50.447Z,12.60
2024-04-12T05:32:44.308Z,12.70
2024-04-12T05:36:11.778Z,11.60
2024-04-12T05:39:12.699Z,17.37
2024-04-12T05:42:13.017Z,13.67
2024-04-12T05:45:06.096Z,11.03
2024-04-12T05:48:12.100Z,12.40
2024-04-12T05:51:13.910Z,12.93
2024-04-12T05:54:18.800Z,11.67
2024-04-12T05:57:15.935Z,17.40
2024-04-12T06:00:25.273Z,11.80
2024-04-12T06:03:54.102Z,11.53
2024-04-12T06:07:09.253Z,9.33
2024-04-12T06:10:02.142Z,11.77
2024-04-12T06:13:08.637Z,10.00
2024-04-12T06:16:33.113Z,11.63
2024-04-12T06:19:20.571Z,10.37
2024-04-12T06:22:17.363Z,11.77
2024-04-12T06:25:27.307Z,9.27
2024-04-12T06:28:58.239Z,9.13
2024-04-12T06:32:09.182Z,13.27
2024-04-12T06:35:22.538Z,17.33
2024-04-12T06:38:25.287Z,10.60
2024-04-12T06:45:03.372Z,11.13
2024-04-12T06:52:06.360Z,10.43
2024-04-12T06:55:18.398Z,8.53
2024-04-12T06:58:43.303Z,9.33
2024-04-12T07:02:08.370Z,9.10
2024-04-12T07:05:02.201Z,9.07
2024-04-12T07:11:38.369Z,8.97
2024-04-12T07:14:51.649Z,7.87
2024-04-12T07:18:03.993Z,9.63
2024-04-12T07:24:36.944Z,5.97
2024-04-12T07:30:38.630Z,9.20
2024-04-12T07:33:38.418Z,9.13
2024-04-12T07:37:03.311Z,8.17
2024-04-12T07:39:58.739Z,5.20
2024-04-12T07:43:21.391Z,5.60
2024-04-12T07:46:36.880Z,6.93
2024-04-12T07:49:26.018Z,6.33
2024-04-12T07:52:21.295Z,7.17
2024-04-12T07:55:46.245Z,6.17
2024-04-12T07:59:15.360Z,7.60
2024-04-12T08:02:11.712Z,5.83
2024-04-12T08:05:26.591Z,7.63
2024-04-12T08:08:16.607Z,8.30
2024-04-12T08:11:45.025Z,10.63
2024-04-12T08:14:41.336Z,6.70
2024-04-12T08:17:41.508Z,6.43
2024-04-12T08:20:40.794Z,7.63
2024-04-12T08:23:33.482Z,4.13
2024-04-12T08:29:59.982Z,6.50
2024-04-12T08:33:24.832Z,7.10
2024-04-12T08:36:55.430Z,4.80
2024-04-12T08:39:46.395Z,5.80
2024-04-12T08:42:36.471Z,6.97
2024-04-12T08:45:31.780Z,10.00
2024-04-12T08:48:47.102Z,6.77
2024-04-12T08:52:12.448Z,5.73
2024-04-12T08:55:14.790Z,6.47
2024-04-12T08:58:38.402Z,6.77
2024-04-12T09:01:27.466Z,4.70
2024-04-12T09:04:55.632Z,5.40
2024-04-12T09:08:09.298Z,3.63
2024-04-12T09:11:08.430Z,3.40
2024-04-12T09:14:10.665Z,4.47
2024-04-12T09:17:45.067Z,3.77
2024-04-12T09:20:42.947Z,5.00
2024-04-12T09:24:01.898Z,6.53
2024-04-12T09:30:34.320Z,8.00
2024-04-12T09:33:22.624Z,8.80
2024-04-12T09:36:16.494Z,8.80
2024-04-12T09:39:09.832Z,8.50
2024-04-12T09:42:00.165Z,8.13
2024-04-12T09:44:51.236Z,11.93
2024-04-12T09:47:58.637Z,9.33
2024-04-12T09:51:05.293Z,9.13
2024-04-12T09:54:11.526Z,8.70
2024-04-12T09:57:19.057Z,8.77
2024-04-12T10:00:26.920Z,6.33
2024-04-12T10:03:34.123Z,5.20
2024-04-12T10:06:41.633Z,6.10
2024-04-12T10:09:51.450Z,5.30
2024-04-12T10:12:57.698Z,4.87
2024-04-12T10:16:16.801Z,4.07
2024-04-12T10:19:28.405Z,4.37
2024-04-12T10:22:34.386Z,3.83
2024-04-12T10:25:40.466Z,5.10
2024-04-12T10:28:56.787Z,3.93
2024-04-12T10:32:05.263Z,4.33
2024-04-12T10:35:11.394Z,4.20
2024-04-12T10:37:59.504Z,5.67
2024-04-12T10:40:49.899Z,6.57
2024-04-12T10:43:37.660Z,6.07
2024-04-12T10:46:25.265Z,4.53
2024-04-12T10:49:13.917Z,4.07
2024-04-12T10:52:02.310Z,3.90
2024-04-12T10:54:49.810Z,3.50
2024-04-12T10:57:41.806Z,4.07
2024-04-12T11:00:29.971Z,5.07
2024-04-12T11:03:26.014Z,5.90
2024-04-12T11:06:20.195Z,4.27
2024-04-12T11:09:09.751Z,5.53
2024-04-12T11:12:10.923Z,3.80
2024-04-12T11:15:17.466Z,5.50
2024-04-12T11:18:30.862Z,4.93
2024-04-12T11:21:46.864Z,3.03
2024-04-12T11:24:52.920Z,4.07
2024-04-12T11:27:59.118Z,3.40
2024-04-12T11:31:05.030Z,2.93
2024-04-12T11:34:04.395Z,2.53
2024-04-12T11:37:07.509Z,3.67
2024-04-12T11:39:55.095Z,2.30
2024-04-12T11:42:42.472Z,6.80
2024-04-12T11:45:32.097Z,3.80
2024-04-12T11:48:19.490Z,3.00
2024-04-12T11:51:09.856Z,3.70
2024-04-12T11:53:57.356Z,2.70
2024-04-12T11:56:46.413Z,3.57
2024-04-12T11:59:34.165Z,3.63
2024-04-12T12:02:24.421Z,1.97
2024-04-12T12:05:19.129Z,1.93
2024-04-12T12:08:07.384Z,3.37
2024-04-12T12:10:56.291Z,6.80
2024-04-12T12:13:45.565Z,5.03
2024-04-12T12:16:34.626Z,2.77
2024-04-12T12:19:22.230Z,2.60
2024-04-12T12:22:11.704Z,4.10
2024-04-12T12:25:05.501Z,3.73
2024-04-12T12:27:56.259Z,3.27
2024-04-12T12:30:45.652Z,4.00
2024-04-12T12:33:39.658Z,5.10
2024-04-12T12:36:29.090Z,2.30
2024-04-12T12:39:16.449Z,6.83
2024-04-12T12:42:04.469Z,3.53
2024-04-12T12:44:53.870Z,3.10
2024-04-12T12:47:41.313Z,3.13
2024-04-12T12:50:30.496Z,2.40
2024-04-12T12:53:21.412Z,2.50
2024-04-12T12:56:09.370Z,3.90
2024-04-12T12:58:58.438Z,3.20
2024-04-12T13:01:48.325Z,3.97
2024-04-12T13:04:37.669Z,2.53
2024-04-12T13:07:25.299Z,2.50
2024-04-12T13:10:13.868Z,3.63
2024-04-12T13:13:06.198Z,3.70
2024-04-12T13:15:57.109Z,3.43
2024-04-12T13:18:47.244Z,3.90
2024-04-12T13:21:37.321Z,3.70
2024-04-12T13:24:26.102Z,2.00
2024-04-12T13:27:16.443Z,4.60
2024-04-12T13:30:11.359Z,2.70
2024-04-12T13:33:00.725Z,2.30
2024-04-12T13:35:48.508Z,1.77
2024-04-12T13:38:35.944Z,1.90
2024-04-12T13:41:23.285Z,3.67
2024-04-12T13:44:10.626Z,3.17
2024-04-12T13:47:16.620Z,6.70
2024-04-12T13:50:23.011Z,2.50
2024-04-12T13:53:11.297Z,1.47
2024-04-12T13:56:21.437Z,2.83
2024-04-12T13:59:12.824Z,1.90
2024-04-12T14:02:00.712Z,2.17
2024-04-12T14:04:48.278Z,2.50
2024-04-12T14:07:35.820Z,3.03
2024-04-12T14:10:23.230Z,1.50
2024-04-12T14:13:18.720Z,2.93
2024-04-12T14:16:06.413Z,2.20
2024-04-12T14:18:56.166Z,2.10
2024-04-12T14:21:43.537Z,2.63
2024-04-12T14:24:49.551Z,5.37
2024-04-12T14:27:38.205Z,1.60
2024-04-12T14:30:25.815Z,2.10
2024-04-12T14:33:14.304Z,2.47
2024-04-12T14:36:02.874Z,4.60
2024-04-12T14:38:50.612Z,2.43
2024-04-12T14:41:38.173Z,2.10
2024-04-12T14:44:26.112Z,1.60
2024-04-12T14:47:16.991Z,1.10
2024-04-12T14:50:08.846Z,3.13
2024-04-12T14:52:56.311Z,2.27
2024-04-12T14:55:44.999Z,2.33
2024-04-12T14:58:32.631Z,2.13
2024-04-12T15:01:20.191Z,4.20
2024-04-12T15:04:26.656Z,3.40
2024-04-12T15:07:32.748Z,2.53
2024-04-12T15:10:39.018Z,2.00
2024-04-12T15:13:45.354Z,2.30
2024-04-12T15:16:51.950Z,2.97
2024-04-12T15:19:57.735Z,2.03
2024-04-12T15:23:03.632Z,2.20
2024-04-12T15:26:09.642Z,2.03
2024-04-12T15:29:15.654Z,4.00
2024-04-12T15:32:21.844Z,2.20
2024-04-12T15:35:28.586Z,4.90
2024-04-12T15:38:34.864Z,2.33
2024-04-12T15:41:40.919Z,3.00
2024-04-12T15:44:47.860Z,2.33
2024-04-12T15:47:35.594Z,2.07
2024-04-12T15:50:23.334Z,3.63
2024-04-12T15:53:19.973Z,4.03
2024-04-12T15:56:07.829Z,3.67
2024-04-12T15:59:13.687Z,2.87
2024-04-12T16:02:19.478Z,3.43
2024-04-12T16:05:25.790Z,2.73
2024-04-12T16:08:31.782Z,5.17
2024-04-12T16:11:19.250Z,4.17
2024-04-12T16:14:07.046Z,4.53
2024-04-12T16:16:57.209Z,4.03
